sensor_id;sensor_type;location;lat;lon;timestamp;P1;durP1;ratioP1;P2;durP2;ratioP2
12214;SDS011;6170;42.206;24.142;2023-07-31T00:00:15;1999.90;;;999.90;;
12214;SDS011;6170;42.206;24.142;2023-07-31T00:02:42;1999.90;;;999.90;;
12214;SDS011;6170;42.206;24.142;2023-07-31T00:05:09;1999.90;;;999.90;;
12214;SDS011;6170;42.206;24.142;2023-07-31T00:07:36;1999.90;;;999.90;;
12214;SDS011;6170;42.206;24.142;2023-07-31T00:10:03;1999.90;;;999.90;;
12214;SDS011;6170;42.206;24.142;2023-07-31T00:12:31;1999.90;;;999.90;;
12214;SDS011;6170;42.206;24.142;2023-07-31T00:14:58;1999.90;;;999.90;;
12214;SDS011;6170;42.206;24.142;2023-07-31T00:17:26;1999.90;;;999.90;;
12214;SDS011;6170;42.206;24.142;2023-07-31T00:19:53;1999.90;;;999.90;;
12214;SDS011;6170;42.206;24.142;2023-07-31T00:22:20;1288.00;;;766.22;;
12214;SDS011;6170;42.206;24.142;2023-07-31T00:24:47;1645.70;;;884.55;;
12214;SDS011;6170;42.206;24.142;2023-07-31T00:27:14;1292.78;;;770.45;;
12214;SDS011;6170;42.206;24.142;2023-07-31T00:29:41;1999.90;;;999.90;;
12214;SDS011;6170;42.206;24.142;2023-07-31T00:32:08;1298.22;;;775.17;;
12214;SDS011;6170;42.206;24.142;2023-07-31T00:34:37;1649.60;;;888.15;;
12214;SDS011;6170;42.206;24.142;2023-07-31T00:37:04;1999.90;;;999.90;;
12214;SDS011;6170;42.206;24.142;2023-07-31T00:39:33;1999.90;;;999.90;;
12214;SDS011;6170;42.206;24.142;2023-07-31T00:42:01;1999.90;;;999.90;;
12214;SDS011;6170;42.206;24.142;2023-07-31T00:44:28;1999.90;;;999.90;;
12214;SDS011;6170;42.206;24.142;2023-07-31T00:46:55;1999.90;;;999.90;;
12214;SDS011;6170;42.206;24.142;2023-07-31T00:49:24;1999.90;;;999.90;;
12214;SDS011;6170;42.206;24.142;2023-07-31T00:51:52;1999.90;;;999.90;;
12214;SDS011;6170;42.206;24.142;2023-07-31T00:54:22;1999.90;;;999.90;;
12214;SDS011;6170;42.206;24.142;2023-07-31T00:56:49;1999.90;;;999.90;;
12214;SDS011;6170;42.206;24.142;2023-07-31T00:59:19;1999.90;;;999.90;;
12214;SDS011;6170;42.206;24.142;2023-07-31T01:01:46;1999.90;;;999.90;;
12214;SDS011;6170;42.206;24.142;2023-07-31T01:04:13;1999.90;;;999.90;;
12214;SDS011;6170;42.206;24.142;2023-07-31T01:06:43;1999.90;;;999.90;;
12214;SDS011;6170;42.206;24.142;2023-07-31T01:09:18;1999.90;;;999.90;;
12214;SDS011;6170;42.206;24.142;2023-07-31T01:11:56;1999.90;;;999.90;;
12214;SDS011;6170;42.206;24.142;2023-07-31T01:14:25;1999.90;;;999.90;;
12214;SDS011;6170;42.206;24.142;2023-07-31T01:16:52;1999.90;;;999.90;;
12214;SDS011;6170;42.206;24.142;2023-07-31T01:19:20;1999.90;;;999.90;;
12214;SDS011;6170;42.206;24.142;2023-07-31T01:21:58;1999.90;;;999.90;;
12214;SDS011;6170;42.206;24.142;2023-07-31T01:24:44;1256.53;;;735.97;;
12214;SDS011;6170;42.206;24.142;2023-07-31T01:27:23;1999.90;;;999.90;;
12214;SDS011;6170;42.206;24.142;2023-07-31T01:29:56;1999.90;;;999.90;;
12214;SDS011;6170;42.206;24.142;2023-07-31T01:32:29;1999.90;;;999.90;;
12214;SDS011;6170;42.206;24.142;2023-07-31T01:34:56;1999.90;;;999.90;;
12214;SDS011;6170;42.206;24.142;2023-07-31T01:37:27;1999.90;;;999.90;;
12214;SDS011;6170;42.206;24.142;2023-07-31T01:39:55;1999.90;;;999.90;;
12214;SDS011;6170;42.206;24.142;2023-07-31T01:42:23;1999.90;;;999.90;;
12214;SDS011;6170;42.206;24.142;2023-07-31T01:44:50;1999.90;;;999.90;;
12214;SDS011;6170;42.206;24.142;2023-07-31T01:47:17;1999.90;;;999.90;;
12214;SDS011;6170;42.206;24.142;2023-07-31T01:49:44;1999.90;;;999.90;;
12214;SDS011;6170;42.206;24.142;2023-07-31T01:52:11;1999.90;;;999.90;;
12214;SDS011;6170;42.206;24.142;2023-07-31T01:54:38;1999.90;;;999.90;;
12214;SDS011;6170;42.206;24.142;2023-07-31T01:57:06;1999.90;;;999.90;;
12214;SDS011;6170;42.206;24.142;2023-07-31T01:59:34;1999.90;;;999.90;;
12214;SDS011;6170;42.206;24.142;2023-07-31T02:02:01;1999.90;;;999.90;;
12214;SDS011;6170;42.206;24.142;2023-07-31T02:04:28;1999.90;;;999.90;;
12214;SDS011;6170;42.206;24.142;2023-07-31T02:06:55;1999.90;;;999.90;;
12214;SDS011;6170;42.206;24.142;2023-07-31T02:09:22;1999.90;;;999.90;;
12214;SDS011;6170;42.206;24.142;2023-07-31T02:11:49;1999.90;;;999.90;;
12214;SDS011;6170;42.206;24.142;2023-07-31T02:14:16;1999.90;;;999.90;;
12214;SDS011;6170;42.206;24.142;2023-07-31T02:16:45;1999.90;;;999.90;;
12214;SDS011;6170;42.206;24.142;2023-07-31T02:19:12;1999.90;;;999.90;;
12214;SDS011;6170;42.206;24.142;2023-07-31T02:21:39;1999.90;;;999.90;;
12214;SDS011;6170;42.206;24.142;2023-07-31T02:24:06;1999.90;;;999.90;;
12214;SDS011;6170;42.206;24.142;2023-07-31T02:26:33;1999.90;;;999.90;;
12214;SDS011;6170;42.206;24.142;2023-07-31T02:29:00;1999.90;;;999.90;;
12214;SDS011;6170;42.206;24.142;2023-07-31T02:31:27;1999.90;;;999.90;;
12214;SDS011;6170;42.206;24.142;2023-07-31T02:33:55;1999.90;;;999.90;;
12214;SDS011;6170;42.206;24.142;2023-07-31T02:36:22;1999.90;;;999.90;;
12214;SDS011;6170;42.206;24.142;2023-07-31T02:38:49;1999.90;;;999.90;;
12214;SDS011;6170;42.206;24.142;2023-07-31T02:41:16;1999.90;;;999.90;;
12214;SDS011;6170;42.206;24.142;2023-07-31T02:43:43;1999.90;;;999.90;;
12214;SDS011;6170;42.206;24.142;2023-07-31T02:46:10;1632.07;;;872.35;;
12214;SDS011;6170;42.206;24.142;2023-07-31T02:48:37;1999.90;;;999.90;;
12214;SDS011;6170;42.206;24.142;2023-07-31T02:51:05;1999.90;;;999.90;;
12214;SDS011;6170;42.206;24.142;2023-07-31T02:53:32;1999.90;;;999.90;;
12214;SDS011;6170;42.206;24.142;2023-07-31T02:55:59;1999.90;;;999.90;;
12214;SDS011;6170;42.206;24.142;2023-07-31T02:58:26;1999.90;;;999.90;;
12214;SDS011;6170;42.206;24.142;2023-07-31T03:00:53;1999.90;;;999.90;;
12214;SDS011;6170;42.206;24.142;2023-07-31T03:03:20;1999.90;;;999.90;;
12214;SDS011;6170;42.206;24.142;2023-07-31T03:05:47;1999.90;;;999.90;;
12214;SDS011;6170;42.206;24.142;2023-07-31T03:08:16;1999.90;;;999.90;;
12214;SDS011;6170;42.206;24.142;2023-07-31T03:10:43;1999.90;;;999.90;;
12214;SDS011;6170;42.206;24.142;2023-07-31T03:13:10;1999.90;;;999.90;;
12214;SDS011;6170;42.206;24.142;2023-07-31T03:15:38;1999.90;;;999.90;;
12214;SDS011;6170;42.206;24.142;2023-07-31T03:18:05;1999.90;;;999.90;;
12214;SDS011;6170;42.206;24.142;2023-07-31T03:20:32;1999.90;;;999.90;;
12214;SDS011;6170;42.206;24.142;2023-07-31T03:22:59;1999.90;;;999.90;;
12214;SDS011;6170;42.206;24.142;2023-07-31T03:25:27;1999.90;;;999.90;;
12214;SDS011;6170;42.206;24.142;2023-07-31T03:27:54;1999.90;;;999.90;;
12214;SDS011;6170;42.206;24.142;2023-07-31T03:30:21;1999.90;;;999.90;;
12214;SDS011;6170;42.206;24.142;2023-07-31T03:32:48;1999.90;;;999.90;;
12214;SDS011;6170;42.206;24.142;2023-07-31T03:35:15;1999.90;;;999.90;;
12214;SDS011;6170;42.206;24.142;2023-07-31T03:37:42;1999.90;;;999.90;;
12214;SDS011;6170;42.206;24.142;2023-07-31T03:40:10;1999.90;;;999.90;;
12214;SDS011;6170;42.206;24.142;2023-07-31T03:42:38;1999.90;;;999.90;;
12214;SDS011;6170;42.206;24.142;2023-07-31T03:45:06;1999.90;;;999.90;;
12214;SDS011;6170;42.206;24.142;2023-07-31T03:47:34;1999.90;;;999.90;;
12214;SDS011;6170;42.206;24.142;2023-07-31T03:50:01;1999.90;;;999.90;;
12214;SDS011;6170;42.206;24.142;2023-07-31T03:52:28;1999.90;;;999.90;;
12214;SDS011;6170;42.206;24.142;2023-07-31T03:54:55;1999.90;;;999.90;;
12214;SDS011;6170;42.206;24.142;2023-07-31T03:57:22;1999.90;;;999.90;;
12214;SDS011;6170;42.206;24.142;2023-07-31T03:59:51;1999.90;;;999.90;;
12214;SDS011;6170;42.206;24.142;2023-07-31T04:02:18;1999.90;;;999.90;;
12214;SDS011;6170;42.206;24.142;2023-07-31T04:04:45;1999.90;;;999.90;;
12214;SDS011;6170;42.206;24.142;2023-07-31T04:07:12;1999.90;;;999.90;;
12214;SDS011;6170;42.206;24.142;2023-07-31T04:09:39;1999.90;;;999.90;;
12214;SDS011;6170;42.206;24.142;2023-07-31T04:12:06;1999.90;;;999.90;;
12214;SDS011;6170;42.206;24.142;2023-07-31T04:14:33;1999.90;;;999.90;;
12214;SDS011;6170;42.206;24.142;2023-07-31T04:17:02;1999.90;;;999.90;;
12214;SDS011;6170;42.206;24.142;2023-07-31T04:19:29;1999.90;;;999.90;;
12214;SDS011;6170;42.206;24.142;2023-07-31T04:21:56;1999.90;;;999.90;;
12214;SDS011;6170;42.206;24.142;2023-07-31T04:24:23;1999.90;;;999.90;;
12214;SDS011;6170;42.206;24.142;2023-07-31T04:26:50;1999.90;;;999.90;;
12214;SDS011;6170;42.206;24.142;2023-07-31T04:29:17;1999.90;;;999.90;;
12214;SDS011;6170;42.206;24.142;2023-07-31T04:31:44;1999.90;;;999.90;;
12214;SDS011;6170;42.206;24.142;2023-07-31T04:34:13;1999.90;;;999.90;;
12214;SDS011;6170;42.206;24.142;2023-07-31T04:36:40;1999.90;;;999.90;;
12214;SDS011;6170;42.206;24.142;2023-07-31T04:39:07;1999.90;;;999.90;;
12214;SDS011;6170;42.206;24.142;2023-07-31T04:41:34;1999.90;;;999.90;;
12214;SDS011;6170;42.206;24.142;2023-07-31T04:44:01;1999.90;;;999.90;;
12214;SDS011;6170;42.206;24.142;2023-07-31T04:46:28;1999.90;;;999.90;;
12214;SDS011;6170;42.206;24.142;2023-07-31T04:48:56;1999.90;;;999.90;;
12214;SDS011;6170;42.206;24.142;2023-07-31T04:51:24;1999.90;;;999.90;;
12214;SDS011;6170;42.206;24.142;2023-07-31T04:53:51;1999.90;;;999.90;;
12214;SDS011;6170;42.206;24.142;2023-07-31T04:56:18;1999.90;;;999.90;;
12214;SDS011;6170;42.206;24.142;2023-07-31T04:58:46;1999.90;;;999.90;;
12214;SDS011;6170;42.206;24.142;2023-07-31T05:01:13;1999.90;;;999.90;;
12214;SDS011;6170;42.206;24.142;2023-07-31T05:03:40;1999.90;;;999.90;;
12214;SDS011;6170;42.206;24.142;2023-07-31T05:06:07;958.58;;;675.78;;
12214;SDS011;6170;42.206;24.142;2023-07-31T05:08:36;1312.40;;;790.70;;
12214;SDS011;6170;42.206;24.142;2023-07-31T05:11:03;1999.90;;;999.90;;
12214;SDS011;6170;42.206;24.142;2023-07-31T05:13:30;1658.05;;;897.22;;
12214;SDS011;6170;42.206;24.142;2023-07-31T05:15:57;1999.90;;;999.90;;
12214;SDS011;6170;42.206;24.142;2023-07-31T05:18:24;1313.82;;;791.55;;
12214;SDS011;6170;42.206;24.142;2023-07-31T05:20:52;1329.43;;;805.20;;
12214;SDS011;6170;42.206;24.142;2023-07-31T05:23:19;1671.20;;;908.20;;
12214;SDS011;6170;42.206;24.142;2023-07-31T05:25:47;1669.63;;;907.17;;
12214;SDS011;6170;42.206;24.142;2023-07-31T05:28:15;664.53;;;614.00;;
12214;SDS011;6170;42.206;24.142;2023-07-31T05:30:42;1337.82;;;812.67;;
12214;SDS011;6170;42.206;24.142;2023-07-31T05:33:09;1338.03;;;812.33;;
12214;SDS011;6170;42.206;24.142;2023-07-31T05:35:36;674.58;;;625.33;;
12214;SDS011;6170;42.206;24.142;2023-07-31T05:38:03;682.45;;;629.70;;
12214;SDS011;6170;42.206;24.142;2023-07-31T05:40:32;657.65;;;608.05;;
12214;SDS011;6170;42.206;24.142;2023-07-31T05:43:00;657.22;;;607.88;;
12214;SDS011;6170;42.206;24.142;2023-07-31T05:45:27;672.30;;;621.47;;
12214;SDS011;6170;42.206;24.142;2023-07-31T05:47:55;1359.88;;;832.38;;
12214;SDS011;6170;42.206;24.142;2023-07-31T05:50:22;678.05;;;626.65;;
12214;SDS011;6170;42.206;24.142;2023-07-31T05:52:49;692.60;;;640.22;;
12214;SDS011;6170;42.206;24.142;2023-07-31T05:55:16;1352.65;;;825.60;;
12214;SDS011;6170;42.206;24.142;2023-07-31T05:57:44;729.60;;;670.60;;
12214;SDS011;6170;42.206;24.142;2023-07-31T06:00:13;711.13;;;655.25;;
12214;SDS011;6170;42.206;24.142;2023-07-31T06:02:41;684.92;;;633.15;;
12214;SDS011;6170;42.206;24.142;2023-07-31T06:05:08;1999.90;;;999.90;;
12214;SDS011;6170;42.206;24.142;2023-07-31T06:07:35;1334.30;;;808.63;;
12214;SDS011;6170;42.206;24.142;2023-07-31T06:10:03;1666.10;;;903.63;;
12214;SDS011;6170;42.206;24.142;2023-07-31T06:12:31;636.65;;;590.08;;
12214;SDS011;6170;42.206;24.142;2023-07-31T06:14:58;1322.10;;;798.58;;
12214;SDS011;6170;42.206;24.142;2023-07-31T06:17:27;1999.90;;;999.90;;
12214;SDS011;6170;42.206;24.142;2023-07-31T06:19:54;1999.90;;;999.90;;
12214;SDS011;6170;42.206;24.142;2023-07-31T06:22:21;604.72;;;559.88;;
12214;SDS011;6170;42.206;24.142;2023-07-31T06:24:48;1661.03;;;899.10;;
12214;SDS011;6170;42.206;24.142;2023-07-31T06:27:16;1345.05;;;819.70;;
12214;SDS011;6170;42.206;24.142;2023-07-31T06:29:43;1669.38;;;906.92;;
12214;SDS011;6170;42.206;24.142;2023-07-31T06:32:10;672.03;;;621.35;;
12214;SDS011;6170;42.206;24.142;2023-07-31T06:34:39;660.83;;;611.95;;
12214;SDS011;6170;42.206;24.142;2023-07-31T06:37:06;670.40;;;619.17;;
12214;SDS011;6170;42.206;24.142;2023-07-31T06:39:33;673.13;;;623.20;;
12214;SDS011;6170;42.206;24.142;2023-07-31T06:42:00;659.92;;;608.63;;
12214;SDS011;6170;42.206;24.142;2023-07-31T06:44:28;676.17;;;623.10;;
12214;SDS011;6170;42.206;24.142;2023-07-31T06:46:55;657.45;;;605.75;;
12214;SDS011;6170;42.206;24.142;2023-07-31T06:49:22;672.80;;;621.28;;
12214;SDS011;6170;42.206;24.142;2023-07-31T06:51:51;660.22;;;609.85;;
12214;SDS011;6170;42.206;24.142;2023-07-31T06:54:18;625.28;;;578.60;;
12214;SDS011;6170;42.206;24.142;2023-07-31T06:56:45;646.08;;;594.72;;
12214;SDS011;6170;42.206;24.142;2023-07-31T06:59:12;639.08;;;591.28;;
12214;SDS011;6170;42.206;24.142;2023-07-31T07:01:40;666.40;;;615.47;;
12214;SDS011;6170;42.206;24.142;2023-07-31T07:04:07;703.72;;;649.25;;
12214;SDS011;6170;42.206;24.142;2023-07-31T07:06:34;682.10;;;629.97;;
12214;SDS011;6170;42.206;24.142;2023-07-31T07:09:03;653.83;;;604.75;;
12214;SDS011;6170;42.206;24.142;2023-07-31T07:11:30;697.67;;;643.13;;
12214;SDS011;6170;42.206;24.142;2023-07-31T07:13:59;636.72;;;588.45;;
12214;SDS011;6170;42.206;24.142;2023-07-31T07:16:28;628.70;;;580.42;;
12214;SDS011;6170;42.206;24.142;2023-07-31T07:18:55;626.95;;;578.08;;
12214;SDS011;6170;42.206;24.142;2023-07-31T07:21:22;650.50;;;601.17;;
12214;SDS011;6170;42.206;24.142;2023-07-31T07:23:50;649.92;;;601.28;;
12214;SDS011;6170;42.206;24.142;2023-07-31T07:26:19;641.80;;;591.60;;
12214;SDS011;6170;42.206;24.142;2023-07-31T07:28:46;661.08;;;609.55;;
12214;SDS011;6170;42.206;24.142;2023-07-31T07:31:13;631.00;;;583.90;;
12214;SDS011;6170;42.206;24.142;2023-07-31T07:33:41;631.72;;;582.50;;
12214;SDS011;6170;42.206;24.142;2023-07-31T07:36:08;658.20;;;606.35;;
12214;SDS011;6170;42.206;24.142;2023-07-31T07:38:35;629.78;;;582.42;;
12214;SDS011;6170;42.206;24.142;2023-07-31T07:41:04;646.92;;;597.28;;
12214;SDS011;6170;42.206;24.142;2023-07-31T07:43:33;638.25;;;589.78;;
12214;SDS011;6170;42.206;24.142;2023-07-31T07:46:00;648.90;;;597.15;;
12214;SDS011;6170;42.206;24.142;2023-07-31T07:48:27;635.45;;;584.40;;
12214;SDS011;6170;42.206;24.142;2023-07-31T07:50:54;621.20;;;573.47;;
12214;SDS011;6170;42.206;24.142;2023-07-31T07:53:21;623.55;;;577.38;;
12214;SDS011;6170;42.206;24.142;2023-07-31T07:55:49;642.28;;;593.25;;
12214;SDS011;6170;42.206;24.142;2023-07-31T07:58:16;652.30;;;600.28;;
12214;SDS011;6170;42.206;24.142;2023-07-31T08:00:49;653.13;;;603.22;;
12214;SDS011;6170;42.206;24.142;2023-07-31T08:03:17;614.92;;;567.22;;
12214;SDS011;6170;42.206;24.142;2023-07-31T08:05:44;654.08;;;604.22;;
12214;SDS011;6170;42.206;24.142;2023-07-31T08:08:13;669.60;;;619.08;;
12214;SDS011;6170;42.206;24.142;2023-07-31T08:10:41;675.67;;;623.47;;
12214;SDS011;6170;42.206;24.142;2023-07-31T08:13:09;667.63;;;616.20;;
12214;SDS011;6170;42.206;24.142;2023-07-31T08:15:37;674.28;;;621.00;;
12214;SDS011;6170;42.206;24.142;2023-07-31T08:18:05;655.90;;;606.50;;
12214;SDS011;6170;42.206;24.142;2023-07-31T08:20:32;679.50;;;628.63;;
12214;SDS011;6170;42.206;24.142;2023-07-31T08:23:00;640.03;;;591.53;;
12214;SDS011;6170;42.206;24.142;2023-07-31T08:25:27;657.80;;;608.85;;
12214;SDS011;6170;42.206;24.142;2023-07-31T08:27:54;660.42;;;610.83;;
12214;SDS011;6170;42.206;24.142;2023-07-31T08:30:21;625.55;;;575.65;;
12214;SDS011;6170;42.206;24.142;2023-07-31T08:32:49;685.92;;;634.28;;
12214;SDS011;6170;42.206;24.142;2023-07-31T08:35:17;645.75;;;595.30;;
12214;SDS011;6170;42.206;24.142;2023-07-31T08:37:45;692.58;;;638.30;;
12214;SDS011;6170;42.206;24.142;2023-07-31T08:40:12;701.58;;;647.97;;
12214;SDS011;6170;42.206;24.142;2023-07-31T08:42:45;736.40;;;678.78;;
12214;SDS011;6170;42.206;24.142;2023-07-31T08:45:14;711.42;;;658.13;;
12214;SDS011;6170;42.206;24.142;2023-07-31T08:47:43;684.95;;;631.90;;
12214;SDS011;6170;42.206;24.142;2023-07-31T08:50:12;700.78;;;646.80;;
12214;SDS011;6170;42.206;24.142;2023-07-31T08:52:41;714.17;;;657.55;;
12214;SDS011;6170;42.206;24.142;2023-07-31T08:55:08;670.50;;;615.88;;
12214;SDS011;6170;42.206;24.142;2023-07-31T08:57:36;664.33;;;613.42;;
12214;SDS011;6170;42.206;24.142;2023-07-31T09:00:05;650.95;;;598.25;;
12214;SDS011;6170;42.206;24.142;2023-07-31T09:02:35;724.75;;;667.28;;
12214;SDS011;6170;42.206;24.142;2023-07-31T09:05:08;697.10;;;641.97;;
12214;SDS011;6170;42.206;24.142;2023-07-31T09:07:37;735.13;;;677.72;;
12214;SDS011;6170;42.206;24.142;2023-07-31T09:10:07;724.92;;;668.88;;
12214;SDS011;6170;42.206;24.142;2023-07-31T09:12:35;716.65;;;662.58;;
12214;SDS011;6170;42.206;24.142;2023-07-31T09:15:03;670.72;;;616.28;;
12214;SDS011;6170;42.206;24.142;2023-07-31T09:17:31;704.78;;;646.50;;
12214;SDS011;6170;42.206;24.142;2023-07-31T09:20:05;678.25;;;624.35;;
12214;SDS011;6170;42.206;24.142;2023-07-31T09:22:40;691.80;;;638.47;;
12214;SDS011;6170;42.206;24.142;2023-07-31T09:25:16;664.75;;;613.15;;
12214;SDS011;6170;42.206;24.142;2023-07-31T09:27:47;692.58;;;637.85;;
12214;SDS011;6170;42.206;24.142;2023-07-31T09:32:42;606.13;;;559.22;;
12214;SDS011;6170;42.206;24.142;2023-07-31T09:35:14;625.53;;;577.00;;
12214;SDS011;6170;42.206;24.142;2023-07-31T09:37:50;624.70;;;575.60;;
12214;SDS011;6170;42.206;24.142;2023-07-31T09:42:54;675.20;;;622.17;;
12214;SDS011;6170;42.206;24.142;2023-07-31T09:45:23;670.47;;;619.28;;
12214;SDS011;6170;42.206;24.142;2023-07-31T09:47:51;707.70;;;651.88;;
12214;SDS011;6170;42.206;24.142;2023-07-31T09:50:20;693.67;;;636.40;;
12214;SDS011;6170;42.206;24.142;2023-07-31T09:52:50;661.67;;;609.83;;
12214;SDS011;6170;42.206;24.142;2023-07-31T09:55:17;698.80;;;644.05;;
12214;SDS011;6170;42.206;24.142;2023-07-31T09:57:48;723.45;;;664.88;;
12214;SDS011;6170;42.206;24.142;2023-07-31T10:00:16;694.28;;;638.10;;
12214;SDS011;6170;42.206;24.142;2023-07-31T10:02:44;718.85;;;661.70;;
12214;SDS011;6170;42.206;24.142;2023-07-31T10:05:13;744.20;;;685.30;;
12214;SDS011;6170;42.206;24.142;2023-07-31T10:07:42;726.25;;;667.80;;
12214;SDS011;6170;42.206;24.142;2023-07-31T10:10:10;695.35;;;640.80;;
12214;SDS011;6170;42.206;24.142;2023-07-31T10:12:38;680.40;;;626.03;;
12214;SDS011;6170;42.206;24.142;2023-07-31T10:15:07;738.60;;;681.28;;
12214;SDS011;6170;42.206;24.142;2023-07-31T10:17:35;749.72;;;690.28;;
12214;SDS011;6170;42.206;24.142;2023-07-31T10:20:03;717.55;;;660.88;;
12214;SDS011;6170;42.206;24.142;2023-07-31T10:22:32;739.28;;;681.45;;
12214;SDS011;6170;42.206;24.142;2023-07-31T10:25:00;634.25;;;585.65;;
12214;SDS011;6170;42.206;24.142;2023-07-31T10:27:28;599.58;;;551.85;;
12214;SDS011;6170;42.206;24.142;2023-07-31T10:29:56;618.05;;;568.78;;
12214;SDS011;6170;42.206;24.142;2023-07-31T10:32:26;667.67;;;616.58;;
12214;SDS011;6170;42.206;24.142;2023-07-31T10:34:54;631.85;;;584.42;;
12214;SDS011;6170;42.206;24.142;2023-07-31T10:37:23;613.08;;;566.50;;
12214;SDS011;6170;42.206;24.142;2023-07-31T10:39:57;608.47;;;561.22;;
12214;SDS011;6170;42.206;24.142;2023-07-31T10:42:32;710.20;;;655.83;;
12214;SDS011;6170;42.206;24.142;2023-07-31T10:45:00;697.63;;;644.10;;
12214;SDS011;6170;42.206;24.142;2023-07-31T10:47:30;732.17;;;675.63;;
12214;SDS011;6170;42.206;24.142;2023-07-31T10:50:13;720.25;;;662.00;;
12214;SDS011;6170;42.206;24.142;2023-07-31T10:52:44;692.70;;;637.65;;
12214;SDS011;6170;42.206;24.142;2023-07-31T10:55:14;707.35;;;651.72;;
12214;SDS011;6170;42.206;24.142;2023-07-31T10:57:44;733.35;;;673.17;;
12214;SDS011;6170;42.206;24.142;2023-07-31T11:00:18;755.85;;;694.30;;
12214;SDS011;6170;42.206;24.142;2023-07-31T11:03:01;725.67;;;669.85;;
12214;SDS011;6170;42.206;24.142;2023-07-31T11:05:45;700.75;;;643.83;;
12214;SDS011;6170;42.206;24.142;2023-07-31T11:08:14;706.65;;;649.00;;
12214;SDS011;6170;42.206;24.142;2023-07-31T11:10:44;746.58;;;685.50;;
12214;SDS011;6170;42.206;24.142;2023-07-31T11:13:13;677.33;;;623.25;;
12214;SDS011;6170;42.206;24.142;2023-07-31T11:15:40;681.85;;;629.15;;
12214;SDS011;6170;42.206;24.142;2023-07-31T11:18:09;708.67;;;655.58;;
12214;SDS011;6170;42.206;24.142;2023-07-31T11:20:36;718.80;;;663.35;;
12214;SDS011;6170;42.206;24.142;2023-07-31T11:23:06;718.75;;;662.30;;
12214;SDS011;6170;42.206;24.142;2023-07-31T11:25:36;628.25;;;580.00;;
12214;SDS011;6170;42.206;24.142;2023-07-31T11:28:04;603.78;;;556.00;;
12214;SDS011;6170;42.206;24.142;2023-07-31T11:30:33;671.40;;;620.40;;
12214;SDS011;6170;42.206;24.142;2023-07-31T11:33:01;690.45;;;638.13;;
12214;SDS011;6170;42.206;24.142;2023-07-31T11:35:31;605.00;;;557.65;;
12214;SDS011;6170;42.206;24.142;2023-07-31T11:37:59;630.90;;;581.25;;
12214;SDS011;6170;42.206;24.142;2023-07-31T11:40:26;626.00;;;579.55;;
12214;SDS011;6170;42.206;24.142;2023-07-31T11:42:55;716.75;;;661.30;;
12214;SDS011;6170;42.206;24.142;2023-07-31T11:45:26;641.03;;;591.45;;
12214;SDS011;6170;42.206;24.142;2023-07-31T11:47:54;642.78;;;593.30;;
12214;SDS011;6170;42.206;24.142;2023-07-31T11:50:22;632.25;;;582.65;;
12214;SDS011;6170;42.206;24.142;2023-07-31T11:52:54;597.78;;;551.03;;
12214;SDS011;6170;42.206;24.142;2023-07-31T11:55:25;607.92;;;560.80;;
12214;SDS011;6170;42.206;24.142;2023-07-31T11:57:55;623.85;;;574.17;;
12214;SDS011;6170;42.206;24.142;2023-07-31T12:00:23;616.50;;;570.15;;
12214;SDS011;6170;42.206;24.142;2023-07-31T12:02:51;624.97;;;575.17;;
12214;SDS011;6170;42.206;24.142;2023-07-31T12:05:19;623.13;;;573.92;;
12214;SDS011;6170;42.206;24.142;2023-07-31T12:07:49;616.22;;;569.33;;
12214;SDS011;6170;42.206;24.142;2023-07-31T12:10:28;679.17;;;625.97;;
12214;SDS011;6170;42.206;24.142;2023-07-31T12:12:56;594.88;;;547.65;;
12214;SDS011;6170;42.206;24.142;2023-07-31T12:15:28;607.17;;;559.13;;
12214;SDS011;6170;42.206;24.142;2023-07-31T12:17:57;589.22;;;544.10;;
12214;SDS011;6170;42.206;24.142;2023-07-31T12:20:24;588.83;;;543.38;;
12214;SDS011;6170;42.206;24.142;2023-07-31T12:22:51;687.85;;;634.50;;
12214;SDS011;6170;42.206;24.142;2023-07-31T12:25:19;669.20;;;616.80;;
12214;SDS011;6170;42.206;24.142;2023-07-31T12:27:47;630.20;;;582.03;;
12214;SDS011;6170;42.206;24.142;2023-07-31T12:30:26;615.30;;;567.35;;
12214;SDS011;6170;42.206;24.142;2023-07-31T12:32:54;583.10;;;538.10;;
12214;SDS011;6170;42.206;24.142;2023-07-31T12:35:21;596.95;;;551.53;;
12214;SDS011;6170;42.206;24.142;2023-07-31T12:37:48;664.17;;;614.28;;
12214;SDS011;6170;42.206;24.142;2023-07-31T12:40:15;608.38;;;560.55;;
12214;SDS011;6170;42.206;24.142;2023-07-31T12:42:42;594.13;;;548.85;;
12214;SDS011;6170;42.206;24.142;2023-07-31T12:45:10;596.58;;;550.08;;
12214;SDS011;6170;42.206;24.142;2023-07-31T12:47:37;605.83;;;560.65;;
12214;SDS011;6170;42.206;24.142;2023-07-31T12:50:05;661.08;;;612.33;;
12214;SDS011;6170;42.206;24.142;2023-07-31T12:52:33;602.67;;;556.78;;
12214;SDS011;6170;42.206;24.142;2023-07-31T12:55:00;640.90;;;592.53;;
12214;SDS011;6170;42.206;24.142;2023-07-31T12:57:27;718.78;;;663.75;;
12214;SDS011;6170;42.206;24.142;2023-07-31T12:59:54;648.78;;;596.42;;
12214;SDS011;6170;42.206;24.142;2023-07-31T13:02:22;642.72;;;591.85;;
12214;SDS011;6170;42.206;24.142;2023-07-31T13:04:49;595.47;;;548.72;;
12214;SDS011;6170;42.206;24.142;2023-07-31T13:07:16;610.20;;;566.05;;
12214;SDS011;6170;42.206;24.142;2023-07-31T13:09:43;622.05;;;572.88;;
12214;SDS011;6170;42.206;24.142;2023-07-31T13:12:10;692.58;;;638.35;;
12214;SDS011;6170;42.206;24.142;2023-07-31T13:14:37;702.83;;;649.00;;
12214;SDS011;6170;42.206;24.142;2023-07-31T13:17:04;662.67;;;613.63;;
12214;SDS011;6170;42.206;24.142;2023-07-31T13:19:33;639.05;;;589.17;;
12214;SDS011;6170;42.206;24.142;2023-07-31T13:22:00;657.20;;;606.47;;
12214;SDS011;6170;42.206;24.142;2023-07-31T13:24:27;701.78;;;644.72;;
12214;SDS011;6170;42.206;24.142;2023-07-31T13:26:54;633.25;;;583.63;;
12214;SDS011;6170;42.206;24.142;2023-07-31T13:29:21;690.67;;;639.38;;
12214;SDS011;6170;42.206;24.142;2023-07-31T13:31:49;732.17;;;675.22;;
12214;SDS011;6170;42.206;24.142;2023-07-31T13:34:16;707.65;;;653.92;;
12214;SDS011;6170;42.206;24.142;2023-07-31T13:36:44;663.10;;;613.08;;
12214;SDS011;6170;42.206;24.142;2023-07-31T13:39:11;708.10;;;655.42;;
12214;SDS011;6170;42.206;24.142;2023-07-31T13:41:38;625.75;;;575.90;;
12214;SDS011;6170;42.206;24.142;2023-07-31T13:44:05;640.25;;;590.45;;
12214;SDS011;6170;42.206;24.142;2023-07-31T13:46:32;704.58;;;651.03;;
12214;SDS011;6170;42.206;24.142;2023-07-31T13:48:59;713.45;;;658.03;;
12214;SDS011;6170;42.206;24.142;2023-07-31T13:51:26;609.05;;;562.20;;
12214;SDS011;6170;42.206;24.142;2023-07-31T13:53:55;657.75;;;607.25;;
12214;SDS011;6170;42.206;24.142;2023-07-31T13:56:22;719.22;;;661.63;;
12214;SDS011;6170;42.206;24.142;2023-07-31T13:58:49;616.35;;;569.20;;
12214;SDS011;6170;42.206;24.142;2023-07-31T14:01:16;593.33;;;547.78;;